Seward, NE

11:50 PM CDT on June 30, 2015 (GMT -0500)
Suhr Lichty Insurance Downtown | | Change Station
CLOSE
Current Station
Personal Weather Station
Location: Seward, NE
Elevation: 1493 ft
Nearby Weather Stations

Elev 1493 ft 40.91 °N, 97.10 °W | Updated 27 minutes ago

Mostly Cloudy
Mostly Cloudy
72.2 °F
Feels Like 73 °F
N
1.0
Wind Variable Wind from West
Gusts 7.0 mph

Today
High -- | Low -- °F
--% Chance of Precip.
Yesterday
High -- | Low -- °F
Precip. -- in
5:59 AM 9:04 PM
Waxing Gibbous, 99% visible
Pressure 29.86 in
Visibility 8.0 miles
Clouds Clear
Heat Index 73 °F
Dew Point 65 °F
Humidity 78%
Rainfall in
Snow Depth Not available.
UV 0 out of 12
Pollen 4.40 out of 12
Air Quality Not available.
Flu Activity Not available.
METAR KLNK 010354Z 07008KT 8SM CLR 23/18 A2989 RMK AO2 SLP110 T02330178

More Conditions Fewer Conditions

Pressure 29.86 in
Visibility 8.0 miles
Clouds Clear
Heat Index 73 °F
Dew Point 65 °F
Humidity 78%
Rainfall in
Snow Depth Not available.
UV 0 out of 12
Pollen 4.40 out of 12
Air Quality Not available.
Flu Activity Not available.
METAR KLNK 010354Z 07008KT 8SM CLR 23/18 A2989 RMK AO2 SLP110 T02330178

More Conditions Fewer Conditions

10-Day Weather Forecast

×

Almanac

Astronomy

Jun. 30, 2015 Rise Set
Actual Time
Civil Twilight
Nautical Twilight
Astronomical Twilight
Moon
Length of Visible Light
Length of Day
Tomorrow will be .
, % of the Moon is Illuminated

Today's Extremes

State Highs State Lows

Community

WunderPhotos

Upload Photos

1,834,146 photos uploaded!

WunderBlogs® & News

Nearby

Air Quality

  Air Quality AQ Index Pollutant
Not available.

Snow Depth

Station Depth Elevation

Earthquake Activity

City Distance Mag. Time & Date
Minimum magnitude displayed is 2.5.

Coastal Water Temperatures

Place Temperature

Stations

Nearby Weather Stations

Station Location Temp. Windchill Dew Point Humidity Wind Precip. Elev Updated Type